Terminal Aerodrome Forecast
Issued by NWS Sioux Falls, SD

Home | Current Version | Previous Version | Text Only | Print | Product List | Glossary On
Versions: 1 2 3 4 5 6 7 8 9 10 11 12
000
FTUS43 KFSD 041720
TAFFSD
TAF
KFSD 041720Z 0418/0518 35012G17KT P6SM SKC
     FM050100 34007KT P6SM SKC
     FM050400 VRB03KT P6SM FEW250
     FM051600 23007KT P6SM SKC=

USA.gov is the U.S. government's official web portal to all federal, state and local government web resources and services.